createdAt,value
2023-02-12T15:56:57.055Z,19.70
2023-02-12T15:59:30.420Z,19.33
2023-02-12T16:02:04.883Z,20.08
2023-02-12T16:04:42.058Z,22.35
2023-02-12T16:07:17.412Z,22.25
2023-02-12T16:09:52.426Z,21.98
2023-02-12T16:12:37.681Z,17.38
2023-02-12T16:15:28.989Z,14.70
2023-02-12T16:18:05.928Z,15.32
2023-02-12T16:20:40.018Z,11.63
2023-02-12T16:23:14.902Z,12.90
2023-02-12T16:25:55.630Z,13.68
2023-02-12T16:28:33.377Z,13.70
2023-02-12T16:31:12.474Z,14.50
2023-02-12T16:33:48.794Z,15.15
2023-02-12T16:36:31.682Z,13.55
2023-02-12T16:39:08.544Z,12.98
2023-02-12T16:41:54.298Z,14.45
2023-02-12T16:44:34.863Z,15.20
2023-02-12T16:47:24.309Z,14.00
2023-02-12T16:50:01.695Z,13.57
2023-02-12T16:52:40.166Z,13.55
2023-02-12T16:55:18.089Z,15.40
2023-02-12T16:57:52.907Z,16.67
2023-02-12T17:00:28.085Z,16.52
2023-02-12T17:03:01.475Z,18.17
2023-02-12T17:05:35.078Z,20.08
2023-02-12T17:10:45.642Z,17.05
2023-02-12T17:13:23.732Z,16.40
2023-02-12T17:16:03.903Z,19.25
2023-02-12T17:18:38.745Z,25.75
2023-02-12T17:23:57.004Z,21.80
2023-02-12T17:26:30.693Z,23.13
2023-02-12T17:29:06.460Z,21.77
2023-02-12T17:31:41.099Z,24.60
2023-02-12T17:34:16.528Z,29.00
2023-02-12T17:36:49.851Z,30.42
2023-02-12T17:39:23.093Z,29.88
2023-02-12T17:41:59.967Z,26.92
2023-02-12T17:44:33.384Z,23.55
2023-02-12T17:47:13.180Z,20.80
2023-02-12T17:49:47.184Z,17.95
2023-02-12T17:54:54.522Z,16.23
2023-02-12T17:57:27.831Z,17.92
2023-02-12T18:00:01.472Z,19.15
2023-02-12T18:02:47.686Z,20.80
2023-02-12T18:05:21.161Z,20.80
2023-02-12T18:07:56.213Z,23.52
2023-02-12T18:10:29.857Z,22.02
2023-02-12T18:13:04.981Z,20.55
2023-02-12T18:15:38.412Z,20.70
2023-02-12T18:18:13.322Z,22.00
2023-02-12T18:20:47.081Z,22.33
2023-02-12T18:23:20.717Z,23.42
2023-02-12T18:28:27.610Z,19.15
2023-02-12T18:31:03.540Z,20.33
2023-02-12T18:33:39.295Z,22.10
2023-02-12T18:36:15.828Z,20.15
2023-02-12T18:38:50.645Z,23.20
2023-02-12T18:41:25.801Z,23.17
2023-02-12T18:43:59.931Z,28.67
2023-02-12T18:46:33.944Z,27.63
2023-02-12T18:49:09.871Z,30.73
2023-02-12T18:51:43.736Z,36.75
2023-02-12T18:56:53.318Z,29.42
2023-02-12T18:59:27.416Z,31.60
2023-02-12T19:02:03.999Z,32.13
2023-02-12T19:04:43.272Z,30.75
2023-02-12T19:07:16.782Z,32.58
2023-02-12T19:09:50.805Z,36.90
2023-02-12T19:12:26.010Z,32.42
2023-02-12T19:15:03.797Z,32.88
2023-02-12T19:17:39.321Z,38.95
2023-02-12T19:20:15.346Z,41.47
2023-02-12T19:22:50.764Z,38.63
2023-02-12T19:25:26.562Z,35.35
2023-02-12T19:28:00.273Z,36.95
2023-02-12T19:30:37.431Z,34.30
2023-02-12T19:33:11.324Z,33.42
2023-02-12T19:35:50.200Z,34.22
2023-02-12T19:38:25.014Z,30.13
2023-02-12T19:41:03.761Z,28.20
2023-02-12T19:43:40.296Z,25.25
2023-02-12T19:46:15.822Z,23.48
2023-02-12T19:48:49.871Z,24.27
2023-02-12T19:51:26.131Z,25.35
2023-02-12T19:54:01.380Z,24.40
2023-02-12T19:56:37.898Z,25.20
2023-02-12T19:59:13.720Z,23.98
2023-02-12T20:01:48.364Z,25.33
2023-02-12T20:04:24.532Z,25.58
2023-02-12T20:06:59.467Z,24.90
2023-02-12T20:09:36.238Z,23.42
2023-02-12T20:12:11.992Z,25.20
2023-02-12T20:14:46.278Z,22.48
2023-02-12T20:17:20.275Z,23.63
2023-02-12T20:19:54.155Z,23.48
2023-02-12T20:22:28.814Z,24.67
2023-02-12T20:25:02.025Z,22.65
2023-02-12T20:27:35.456Z,21.65
2023-02-12T20:30:12.745Z,23.08
2023-02-12T20:32:46.477Z,23.58
2023-02-12T20:35:19.972Z,22.88
2023-02-12T20:37:55.142Z,26.00
2023-02-12T20:40:28.832Z,22.00
2023-02-12T20:43:02.452Z,21.90
2023-02-12T20:45:36.298Z,24.58
2023-02-12T20:48:10.276Z,21.02
2023-02-12T20:50:43.710Z,22.02
2023-02-12T20:53:18.373Z,21.70
2023-02-12T20:55:52.108Z,21.13
2023-02-12T20:58:26.858Z,22.23
2023-02-12T21:01:07.124Z,22.23
2023-02-12T21:03:40.595Z,22.58
2023-02-12T21:06:13.836Z,26.10
2023-02-12T21:08:51.195Z,23.42
2023-02-12T21:11:26.723Z,21.73
2023-02-12T21:14:20.788Z,25.00
2023-02-12T21:19:35.031Z,22.05
2023-02-12T21:22:08.452Z,22.15
2023-02-12T21:24:42.995Z,22.10
2023-02-12T21:27:16.447Z,22.73
2023-02-12T21:29:50.064Z,21.73
2023-02-12T21:32:23.448Z,20.75
2023-02-12T21:34:56.934Z,22.10
2023-02-12T21:37:32.137Z,23.38
2023-02-12T21:40:08.636Z,22.52
2023-02-12T21:42:42.114Z,23.77
2023-02-12T21:45:15.363Z,24.77
2023-02-12T21:47:48.614Z,26.98
2023-02-12T21:50:22.372Z,31.20
2023-02-12T21:52:55.842Z,30.27
2023-02-12T21:55:30.597Z,30.67
2023-02-12T21:58:03.855Z,31.55
2023-02-12T22:00:37.247Z,31.92
2023-02-12T22:03:10.459Z,30.85
2023-02-12T22:05:43.683Z,28.42
2023-02-12T22:08:17.336Z,26.67
2023-02-12T22:10:52.430Z,28.55
2023-02-12T22:13:26.321Z,28.80
2023-02-12T22:16:09.369Z,29.75
2023-02-12T22:18:43.558Z,40.28
2023-02-12T22:21:18.665Z,45.60
2023-02-12T22:23:52.858Z,47.67
2023-02-12T22:29:04.098Z,37.45
2023-02-12T22:31:39.670Z,39.42
2023-02-12T22:34:15.804Z,40.85
2023-02-12T22:36:49.627Z,42.78
2023-02-12T22:39:23.077Z,42.35
2023-02-12T22:41:57.828Z,43.30
2023-02-12T22:44:31.544Z,45.38
2023-02-12T22:47:05.102Z,49.13
2023-02-12T22:49:38.511Z,46.67
2023-02-12T22:52:12.460Z,44.83
2023-02-12T22:57:20.014Z,44.97
2023-02-12T22:59:53.221Z,44.22
2023-02-12T23:02:26.781Z,44.97
2023-02-12T23:05:00.138Z,41.38
2023-02-12T23:07:33.299Z,41.90
2023-02-12T23:10:07.689Z,41.00
2023-02-12T23:12:42.899Z,38.35
2023-02-12T23:15:16.646Z,35.90
2023-02-12T23:20:23.920Z,34.47
2023-02-12T23:22:57.182Z,37.90
2023-02-12T23:25:30.383Z,38.53
2023-02-12T23:28:05.202Z,39.38
2023-02-12T23:30:38.593Z,44.42
2023-02-12T23:33:12.492Z,44.67
2023-02-12T23:38:19.914Z,47.03
2023-02-12T23:40:53.255Z,50.42
2023-02-12T23:43:27.820Z,49.63
2023-02-12T23:46:01.515Z,50.67
2023-02-12T23:51:08.846Z,46.07
2023-02-12T23:53:42.340Z,46.55
2023-02-12T23:56:15.748Z,42.17
2023-02-12T23:58:50.466Z,43.15
